Forside
METAR-TAF:

METAR-TAF

Lufthavne :

Madison, Wisconsin, USA

Breddekreds: 43-08-26N, længdekreds: 089-20-43W, højde: 262 m

Aktuelle vejr

Denne rapport blev lavet for 46 minutter siden, kl. 12:53 UTC
Vind 12 kt fra nordøst
Temperatur 2°C
Fugtighed 75%
Tryk 1019 hPa
Sigt: 16.1 km
Overskyet i en højde af 1800 ft

METAR: KMSN 311253Z 05012KT 10SM OVC018 02/M02 A3010 RMK AO2 SLP199 T00171017

Tid: 08:39 (13:39 UTC)

Vejrudsigter

Denne rapport blev lavet for 2 timer og 19 minutter siden, kl. 11:20 UTC
Foreløbig gælder fra 31 på 12 UTC til 01 på 12 UTC
Vind 5 kt fra nordnordøst
Sigt: 10 km
Brudte skyer i en højde af 2500 ft
Fra 31 på 1300 UTC
Vind 6 kt fra nordnordøst
Sigt: 10 km
Overskyet i en højde af 2000 ft
Fra 01 på 0300 UTC
Vind kt fra nord
Sigt: 10 km
Brudte skyer i en højde af 3500 ft
Fra 01 på 0700 UTC
Vind kt fra nord
Sigt: 10 km
Brudte skyer i en højde af 2000 ft

TAF: KMSN 311120Z 3112/0112 02005KT P6SM BKN025 FM311300 03006KT P6SM OVC020 FM010300 00000KT P6SM BKN035 FM010700 00000KT P6SM BKN020

Vejrobservationer og prognoser fra mere end 4000 lufthavne (METAR og TAF).

De gule og røde prikker repræsenterer de meteorologiske stationer.

Flyt musen over at se navnet på stationen.

Så klik over at se vejr observationer og prognoser.

At skifte det kort: Klik på de grønne knapper med et sort kors for at zoome ind; på den grønne knap med en bindestreg for at zoome ud; eller på de grønne pile for tilstødende kort.


METAR-TAF: